Time;durP1;ratioP1;P1;durP2;ratioP2;P2;SDS_P1;SDS_P2;PMS_P1;PMS_P2;Temp;Humidity;BMP_temperature;BMP_pressure;BME280_temperature;BME280_humidity;BME280_pressure;Samples;Min_cycle;Max_cycle;Signal;HPM_P1;HPM_P2
2020/12/03 00:00:57;;;;;;;6.53;2.42;;;5.30;59.30;;;;;;5026214;28;80832;-73
2020/12/03 00:03:25;;;;;;;7.88;1.85;;;5.30;59.50;;;;;;5026306;28;82630;-73
2020/12/03 00:06:19;;;;;;;5.15;1.88;;;5.20;59.40;;;;;;5025327;28;81101;-73
2020/12/03 00:08:57;;;;;;;7.10;2.63;;;5.30;59.40;;;;;;5026475;28;81233;-73
2020/12/03 00:11:27;;;;;;;5.55;2.42;;;5.30;59.40;;;;;;5026205;28;80986;-72
2020/12/03 00:13:53;;;;;;;5.15;1.75;;;5.20;59.50;;;;;;5026952;28;80024;-72
2020/12/03 00:16:19;;;;;;;8.45;3.70;;;5.20;59.60;;;;;;5027532;28;80560;-74
2020/12/03 00:18:45;;;;;;;11.27;2.25;;;5.20;59.90;;;;;;5027756;28;80382;-72
2020/12/03 00:21:12;;;;;;;7.05;2.67;;;5.20;60.00;;;;;;5027739;28;80579;-72
2020/12/03 00:23:40;;;;;;;5.90;1.85;;;5.30;60.10;;;;;;5026159;28;80657;-73
2020/12/03 00:26:07;;;;;;;5.90;2.15;;;5.20;60.30;;;;;;5026764;28;79968;-72
2020/12/03 00:28:35;;;;;;;8.00;2.45;;;5.20;60.40;;;;;;5025674;28;80403;-72
2020/12/03 00:31:02;;;;;;;7.80;3.35;;;5.20;60.50;;;;;;5027671;28;80401;-73
2020/12/03 00:33:28;;;;;;;8.52;2.30;;;5.20;60.50;;;;;;5027174;28;81115;-73
2020/12/03 00:35:54;;;;;;;4.45;2.28;;;5.20;60.50;;;;;;5026319;28;79830;-73
2020/12/03 00:38:21;;;;;;;7.13;3.20;;;5.20;60.70;;;;;;5026274;28;82766;-73
2020/12/03 00:40:48;;;;;;;9.88;3.20;;;5.20;60.80;;;;;;5027865;28;80827;-73
2020/12/03 00:43:16;;;;;;;8.27;2.55;;;5.20;60.80;;;;;;5027358;28;80100;-72
2020/12/03 00:45:43;;;;;;;5.95;2.85;;;5.10;61.10;;;;;;5027559;28;82103;-74
2020/12/03 00:48:09;;;;;;;5.25;2.53;;;5.00;61.30;;;;;;5030664;28;79813;-73
2020/12/03 00:50:35;;;;;;;5.95;2.08;;;5.00;61.30;;;;;;5028943;28;81941;-73
2020/12/03 00:53:02;;;;;;;9.40;2.45;;;5.10;61.50;;;;;;5029572;28;80664;-72
2020/12/03 00:55:27;;;;;;;10.63;3.30;;;5.10;61.70;;;;;;5028328;28;80856;-73
2020/12/03 00:57:53;;;;;;;6.57;2.72;;;5.10;61.80;;;;;;5031510;28;80290;-73
2020/12/03 01:00:20;;;;;;;9.25;2.45;;;5.10;61.80;;;;;;5029384;28;80540;-73
2020/12/03 01:02:47;;;;;;;6.18;2.78;;;5.00;61.90;;;;;;5026894;28;80476;-73
2020/12/03 01:05:15;;;;;;;6.35;2.45;;;5.00;61.90;;;;;;5026378;28;80883;-73
2020/12/03 01:07:41;;;;;;;10.43;3.20;;;5.00;62.10;;;;;;5025655;28;80050;-73
2020/12/03 01:10:13;;;;;;;9.30;2.80;;;5.00;62.10;;;;;;5027232;28;80943;-73
2020/12/03 01:12:39;;;;;;;7.68;3.03;;;5.00;62.20;;;;;;5028104;28;80111;-73
2020/12/03 01:15:06;;;;;;;6.88;3.17;;;5.00;62.20;;;;;;5026454;28;83249;-73
2020/12/03 01:17:32;;;;;;;4.25;2.65;;;5.00;62.30;;;;;;5031659;28;80468;-73
2020/12/03 01:19:58;;;;;;;8.45;2.80;;;5.00;62.40;;;;;;5032667;28;81552;-73
2020/12/03 01:22:24;;;;;;;6.80;2.60;;;5.00;62.40;;;;;;5030895;28;82752;-73
2020/12/03 01:24:49;;;;;;;7.03;2.88;;;5.10;62.40;;;;;;5029613;28;81224;-72
2020/12/03 01:27:15;;;;;;;6.70;3.08;;;5.10;62.60;;;;;;5028871;28;80658;-72
2020/12/03 01:29:43;;;;;;;4.80;2.70;;;5.00;62.70;;;;;;5030564;28;80478;-72
2020/12/03 01:32:09;;;;;;;6.55;3.22;;;5.10;63.00;;;;;;5028994;28;81261;-72
2020/12/03 01:34:35;;;;;;;6.25;2.70;;;5.00;63.10;;;;;;5029228;28;83222;-72
2020/12/03 01:37:02;;;;;;;5.70;2.58;;;5.00;63.10;;;;;;5030845;28;80071;-72
2020/12/03 01:39:28;;;;;;;7.22;3.05;;;5.00;62.90;;;;;;5030988;28;80841;-73
2020/12/03 01:41:54;;;;;;;12.52;3.47;;;5.00;63.00;;;;;;5030568;28;80791;-71
2020/12/03 01:44:38;;;;;;;8.70;2.70;;;5.10;63.10;;;;;;5030007;28;81184;-72
2020/12/03 01:47:04;;;;;;;6.75;2.75;;;5.10;63.10;;;;;;5029815;28;80053;-72
2020/12/03 01:49:33;;;;;;;9.48;3.00;;;5.00;63.10;;;;;;5028637;28;80764;-72
2020/12/03 01:51:59;;;;;;;6.05;2.53;;;5.00;63.10;;;;;;5028761;28;81122;-73
2020/12/03 01:54:25;;;;;;;9.70;3.38;;;5.00;63.10;;;;;;5028354;28;83192;-73
2020/12/03 01:57:09;;;;;;;15.43;2.75;;;5.00;63.10;;;;;;5030675;28;80049;-72
2020/12/03 01:59:34;;;;;;;6.97;3.13;;;5.20;63.30;;;;;;5028799;28;80933;-72
2020/12/03 02:02:00;;;;;;;6.45;2.65;;;5.10;63.20;;;;;;5029762;28;79854;-72
2020/12/03 02:04:28;;;;;;;7.20;3.38;;;5.10;63.40;;;;;;5032274;28;81147;-73
2020/12/03 02:07:07;;;;;;;7.82;2.47;;;5.10;63.50;;;;;;5037344;28;80210;-73
2020/12/03 02:09:33;;;;;;;6.50;3.13;;;5.10;63.60;;;;;;5036073;28;80729;-73
2020/12/03 02:11:59;;;;;;;6.50;2.67;;;5.10;63.70;;;;;;5034587;28;79948;-73
2020/12/03 02:14:25;;;;;;;15.18;3.75;;;5.00;63.80;;;;;;5031632;28;81902;-72
2020/12/03 02:16:51;;;;;;;10.10;3.47;;;5.00;63.90;;;;;;5031571;28;80263;-72
2020/12/03 02:19:26;;;;;;;7.53;3.03;;;5.00;63.80;;;;;;5028845;28;81288;-72
2020/12/03 02:22:02;;;;;;;6.43;3.03;;;5.00;63.90;;;;;;5028019;28;80385;-72
2020/12/03 02:24:34;;;;;;;5.47;2.78;;;5.00;63.90;;;;;;5027588;28;81038;-73
2020/12/03 02:27:01;;;;;;;8.40;2.97;;;5.00;64.10;;;;;;5027352;28;79987;-73
2020/12/03 02:29:27;;;;;;;9.20;3.53;;;4.90;64.00;;;;;;5027403;28;81422;-72
2020/12/03 02:31:53;;;;;;;6.22;3.00;;;4.90;64.10;;;;;;5027338;28;82272;-73
2020/12/03 02:34:21;;;;;;;7.40;3.30;;;4.90;64.00;;;;;;5027674;28;81877;-72
2020/12/03 02:36:56;;;;;;;7.78;3.28;;;4.90;63.80;;;;;;5027837;28;80812;-73
2020/12/03 02:39:23;;;;;;;8.20;3.40;;;4.90;63.90;;;;;;5027678;28;81003;-73
2020/12/03 02:41:49;;;;;;;11.65;4.10;;;4.90;63.80;;;;;;5027943;28;81496;-73
2020/12/03 02:44:16;;;;;;;9.20;3.38;;;4.90;63.70;;;;;;5029557;28;80918;-72
2020/12/03 02:46:42;;;;;;;5.88;3.42;;;4.90;63.60;;;;;;5029232;28;80144;-73
2020/12/03 02:49:09;;;;;;;6.93;3.58;;;4.80;63.60;;;;;;5029855;28;80230;-72
2020/12/03 02:51:40;;;;;;;6.00;3.03;;;4.80;63.70;;;;;;5027843;28;80019;-72
2020/12/03 02:54:07;;;;;;;8.23;3.60;;;4.80;63.70;;;;;;5027241;28;81907;-73
2020/12/03 02:56:33;;;;;;;9.45;3.30;;;4.70;63.70;;;;;;5027201;28;81753;-73
2020/12/03 02:58:59;;;;;;;8.85;3.58;;;4.70;63.90;;;;;;5027033;28;80747;-74
2020/12/03 03:01:25;;;;;;;9.55;3.42;;;4.60;63.90;;;;;;5026839;28;80773;-73
2020/12/03 03:03:51;;;;;;;8.93;4.32;;;4.60;64.10;;;;;;5028459;28;82392;-73
2020/12/03 03:06:17;;;;;;;11.70;4.30;;;4.60;64.30;;;;;;5026934;28;82223;-72
2020/12/03 03:08:43;;;;;;;7.97;3.92;;;4.60;64.30;;;;;;5028630;28;80610;-73
2020/12/03 03:11:09;;;;;;;9.98;3.65;;;4.60;64.50;;;;;;5027019;28;81844;-72
2020/12/03 03:13:35;;;;;;;7.07;3.92;;;4.50;64.50;;;;;;5027540;28;80742;-72
2020/12/03 03:16:01;;;;;;;8.23;3.92;;;4.50;64.20;;;;;;5027406;28;80044;-72
2020/12/03 03:18:27;;;;;;;8.65;3.85;;;4.50;64.10;;;;;;5026787;28;80155;-73
2020/12/03 03:20:52;;;;;;;10.60;3.53;;;4.50;63.90;;;;;;5028213;28;79856;-72
2020/12/03 03:23:19;;;;;;;9.18;3.78;;;4.50;63.90;;;;;;5028437;28;79956;-75
2020/12/03 03:25:45;;;;;;;8.23;3.33;;;4.50;64.00;;;;;;5026688;28;80803;-73
2020/12/03 03:28:12;;;;;;;10.57;4.35;;;4.50;64.30;;;;;;5026690;28;81682;-73
2020/12/03 03:30:38;;;;;;;10.75;4.35;;;4.50;64.60;;;;;;5028451;28;80794;-72
2020/12/03 03:33:04;;;;;;;10.48;3.53;;;4.50;64.60;;;;;;5026824;28;80562;-72
2020/12/03 03:35:30;;;;;;;7.47;3.17;;;4.50;64.70;;;;;;5026747;28;81724;-73
2020/12/03 03:37:56;;;;;;;7.97;2.85;;;4.50;64.60;;;;;;5027635;28;81093;-72
2020/12/03 03:40:22;;;;;;;6.45;2.38;;;4.40;64.20;;;;;;5027318;28;80504;-72
2020/12/03 03:42:48;;;;;;;5.70;2.42;;;4.30;64.00;;;;;;5028029;28;80903;-72
2020/12/03 03:45:14;;;;;;;5.03;2.20;;;4.20;64.00;;;;;;5026828;28;81492;-71
2020/12/03 03:47:40;;;;;;;6.38;2.58;;;4.00;64.10;;;;;;5028875;28;81100;-73
2020/12/03 03:50:08;;;;;;;6.88;3.53;;;3.90;64.30;;;;;;5027162;28;81358;-72
2020/12/03 03:52:34;;;;;;;4.35;2.20;;;3.90;64.30;;;;;;5027091;28;81293;-72
2020/12/03 03:55:00;;;;;;;9.73;2.15;;;3.70;64.40;;;;;;5027832;28;80467;-73
2020/12/03 03:57:26;;;;;;;5.60;2.20;;;3.60;64.40;;;;;;5026128;28;83049;-71
2020/12/03 03:59:52;;;;;;;6.30;2.53;;;3.50;64.50;;;;;;5026029;28;81952;-72
2020/12/03 04:02:22;;;;;;;5.05;2.15;;;3.50;64.60;;;;;;5027717;28;79811;-72
2020/12/03 04:04:49;;;;;;;5.78;2.35;;;3.40;64.90;;;;;;5028174;28;80425;-73
2020/12/03 04:07:16;;;;;;;11.05;2.22;;;3.40;65.00;;;;;;5026932;28;80865;-73
2020/12/03 04:09:44;;;;;;;4.20;2.00;;;3.30;65.00;;;;;;5028401;28;82666;-72
2020/12/03 04:12:10;;;;;;;6.00;2.35;;;3.20;65.10;;;;;;5028810;28;80554;-73
2020/12/03 04:14:36;;;;;;;7.80;2.53;;;3.10;65.20;;;;;;5027453;28;79841;-73
2020/12/03 04:17:02;;;;;;;4.35;2.42;;;3.00;65.30;;;;;;5026070;28;82115;-73
2020/12/03 04:19:28;;;;;;;6.43;2.30;;;3.00;65.40;;;;;;5025765;28;82503;-73
2020/12/03 04:21:54;;;;;;;6.55;2.13;;;2.90;65.50;;;;;;5028157;28;80461;-73
2020/12/03 04:24:20;;;;;;;4.85;2.00;;;2.80;65.70;;;;;;5027184;28;80665;-73
2020/12/03 04:26:45;;;;;;;5.43;2.55;;;2.80;65.90;;;;;;5027626;28;80941;-73
2020/12/03 04:29:14;;;;;;;6.05;2.55;;;2.70;66.00;;;;;;5025800;28;80221;-72
2020/12/03 04:31:44;;;;;;;6.10;2.80;;;2.60;66.10;;;;;;5025578;28;81097;-73
2020/12/03 04:34:11;;;;;;;5.57;2.35;;;2.60;66.20;;;;;;5025282;28;83037;-73
2020/12/03 04:36:36;;;;;;;5.40;2.75;;;2.60;66.40;;;;;;5025438;28;80988;-72
2020/12/03 04:39:05;;;;;;;6.35;2.50;;;2.60;66.30;;;;;;5027442;28;79732;-72
2020/12/03 04:41:34;;;;;;;5.35;2.42;;;2.60;66.40;;;;;;5027053;28;80571;-72
2020/12/03 04:44:23;;;;;;;9.27;2.55;;;2.60;66.40;;;;;;5025667;28;79745;-72
2020/12/03 04:47:26;;;;;;;7.57;2.60;;;2.60;66.50;;;;;;5027786;28;80974;-72
2020/12/03 04:50:15;;;;;;;5.03;1.98;;;2.60;66.50;;;;;;5028205;28;80751;-72
2020/12/03 04:53:05;;;;;;;7.72;2.38;;;2.60;66.50;;;;;;5030822;28;79614;-74
2020/12/03 04:55:56;;;;;;;5.80;2.63;;;2.50;66.60;;;;;;5029612;28;81995;-73
2020/12/03 04:58:47;;;;;;;5.22;2.10;;;2.50;66.70;;;;;;5030309;28;81140;-72
2020/12/03 05:01:47;;;;;;;5.95;2.92;;;2.40;66.70;;;;;;5030360;28;80074;-72
2020/12/03 05:04:20;;;;;;;4.22;2.20;;;2.40;66.90;;;;;;5028721;28;81280;-72
2020/12/03 05:07:04;;;;;;;5.60;2.70;;;2.40;67.00;;;;;;5028884;28;80747;-72
2020/12/03 05:09:33;;;;;;;4.85;2.38;;;2.30;67.00;;;;;;5028581;28;83179;-72
2020/12/03 05:12:13;;;;;;;9.65;2.40;;;2.30;67.10;;;;;;5028872;28;83794;-73
2020/12/03 05:14:42;;;;;;;7.20;3.05;;;2.30;67.30;;;;;;5030385;28;80341;-73
2020/12/03 05:17:44;;;;;;;7.30;2.25;;;2.30;67.20;;;;;;5028041;28;82622;-72
2020/12/03 05:20:22;;;;;;;7.20;2.65;;;2.20;67.50;;;;;;5028667;28;81183;-73
2020/12/03 05:22:55;;;;;;;7.55;2.58;;;2.10;67.50;;;;;;5029099;28;82292;-73
2020/12/03 05:25:23;;;;;;;5.38;2.53;;;2.10;67.70;;;;;;5028967;28;80694;-72
2020/12/03 05:27:51;;;;;;;6.95;2.58;;;2.10;67.70;;;;;;5031177;28;80254;-72
2020/12/03 05:30:17;;;;;;;7.20;3.13;;;2.10;67.70;;;;;;5031480;28;81390;-72
2020/12/03 05:32:45;;;;;;;4.57;2.30;;;2.10;67.70;;;;;;5033646;28;79908;-73
2020/12/03 05:35:11;;;;;;;8.48;2.90;;;2.10;67.80;;;;;;5029132;28;82089;-72
2020/12/03 05:37:38;;;;;;;6.53;2.55;;;2.10;67.70;;;;;;5032378;28;80351;-73
2020/12/03 05:40:10;;;;;;;6.93;3.53;;;2.00;67.60;;;;;;5032468;28;80643;-71
2020/12/03 05:42:37;;;;;;;11.82;3.80;;;2.00;67.70;;;;;;5031898;28;80576;-72
2020/12/03 05:45:19;;;;;;;12.98;7.60;;;2.00;67.80;;;;;;5030716;28;81811;-72
2020/12/03 05:47:48;;;;;;;15.73;4.93;;;2.10;67.90;;;;;;5030629;28;82100;-72
2020/12/03 05:50:29;;;;;;;11.63;3.80;;;2.10;67.80;;;;;;5030821;28;80820;-72
2020/12/03 05:53:17;;;;;;;11.20;3.78;;;2.10;67.80;;;;;;5032097;28;80183;-74
2020/12/03 05:55:44;;;;;;;8.90;3.85;;;2.10;67.80;;;;;;5030749;28;81141;-72
2020/12/03 05:58:27;;;;;;;7.57;3.15;;;2.10;67.80;;;;;;5030306;28;80202;-72
2020/12/03 06:01:05;;;;;;;5.38;2.75;;;2.20;67.80;;;;;;5028369;28;82007;-73
2020/12/03 06:03:40;;;;;;;7.10;2.80;;;2.10;67.70;;;;;;5026774;28;82014;-73
2020/12/03 06:06:50;;;;;;;8.63;3.85;;;2.10;67.80;;;;;;5028600;28;79834;-73
2020/12/03 06:09:45;;;;;;;12.95;4.60;;;2.10;67.70;;;;;;5028404;28;80749;-73
2020/12/03 06:12:29;;;;;;;13.20;5.05;;;2.00;68.10;;;;;;5029007;28;81314;-73
2020/12/03 06:15:05;;;;;;;11.93;5.25;;;2.00;68.00;;;;;;5029449;28;82268;-73
2020/12/03 06:18:14;;;;;;;11.75;5.25;;;1.90;68.00;;;;;;5029347;28;80184;-73
2020/12/03 06:21:19;;;;;;;10.50;4.90;;;2.00;68.00;;;;;;5028292;28;80325;-73
2020/12/03 06:24:01;;;;;;;10.82;4.78;;;1.90;68.20;;;;;;5024530;28;82955;-66
2020/12/03 06:26:46;;;;;;;14.43;6.30;;;1.90;68.30;;;;;;5027869;28;81468;-66
2020/12/03 06:29:27;;;;;;;22.17;7.43;;;1.90;68.20;;;;;;5029789;28;80768;-65
2020/12/03 06:32:21;;;;;;;12.18;5.68;;;1.90;68.30;;;;;;5028163;28;80067;-64
2020/12/03 06:34:54;;;;;;;;;;;1.90;68.30;;;;;;5028638;28;81706;-69
2020/12/03 06:37:41;;;;;;;10.88;4.28;;;1.90;68.30;;;;;;5067789;27;83228;-68
2020/12/03 06:40:16;;;;;;;15.85;4.38;;;1.90;68.20;;;;;;5028796;28;82643;-66
2020/12/03 06:42:50;;;;;;;9.50;3.38;;;2.00;68.30;;;;;;5028054;28;81007;-68
2020/12/03 06:45:46;;;;;;;9.38;3.88;;;2.00;68.30;;;;;;5028764;28;83799;-67
2020/12/03 06:48:22;;;;;;;7.88;4.15;;;2.10;68.30;;;;;;5027713;28;80147;-65
2020/12/03 06:51:18;;;;;;;8.45;4.20;;;2.20;68.40;;;;;;5029161;28;79873;-67
2020/12/03 06:53:58;;;;;;;8.32;4.72;;;2.20;68.30;;;;;;5028591;28;80043;-65
2020/12/03 06:56:59;;;;;;;10.68;5.13;;;2.20;68.40;;;;;;5027070;28;81144;-65
2020/12/03 06:59:52;;;;;;;9.10;4.10;;;2.30;68.40;;;;;;4969266;28;83628;-68
2020/12/03 07:03:00;;;;;;;9.90;4.47;;;2.30;68.40;;;;;;5027862;28;80596;-65
2020/12/03 07:05:48;;;;;;;13.18;5.47;;;2.40;68.50;;;;;;5027659;28;80450;-66
2020/12/03 07:08:37;;;;;;;10.68;4.65;;;2.40;68.50;;;;;;5029333;28;80966;-68
2020/12/03 07:11:09;;;;;;;12.57;4.97;;;2.50;68.50;;;;;;5018985;28;83243;-68
2020/12/03 07:14:04;;;;;;;10.73;4.60;;;2.50;68.60;;;;;;5026846;28;80711;-67
2020/12/03 07:16:58;;;;;;;10.05;4.10;;;2.60;68.60;;;;;;5026852;28;80955;-66
2020/12/03 07:19:42;;;;;;;;;;;2.60;68.40;;;;;;5027517;28;82623;-65
2020/12/03 07:22:17;;;;;;;;;;;2.60;68.30;;;;;;5032460;28;80787;-65
2020/12/03 07:24:45;;;;;;;10.02;4.32;;;2.60;68.50;;;;;;5032058;28;77933;-65
2020/12/03 07:27:35;;;;;;;8.30;4.30;;;2.60;68.50;;;;;;5027035;28;79989;-65
2020/12/03 07:30:07;;;;;;;10.32;3.70;;;2.70;68.30;;;;;;5026955;28;81341;-66
2020/12/03 07:32:56;;;;;;;9.93;4.18;;;2.70;68.40;;;;;;5027992;28;80121;-66
2020/12/03 07:35:51;;;;;;;11.93;5.35;;;2.80;68.30;;;;;;5027934;28;80632;-70
2020/12/03 07:38:39;;;;;;;15.63;6.18;;;2.80;68.40;;;;;;5027882;28;79966;-65
2020/12/03 07:41:06;;;;;;;9.82;4.68;;;2.90;68.40;;;;;;5026582;28;83444;-66
2020/12/03 07:43:39;;;;;;;13.13;5.10;;;2.90;68.40;;;;;;5030183;28;80145;-67
2020/12/03 07:46:23;;;;;;;9.33;4.97;;;2.90;68.30;;;;;;5028848;28;80759;-65
2020/12/03 07:48:49;;;;;;;20.63;7.55;;;3.00;68.20;;;;;;5027032;28;80618;-65
2020/12/03 07:51:17;;;;;;;10.38;4.60;;;3.00;68.20;;;;;;5026069;28;82678;-67
2020/12/03 07:53:43;;;;;;;12.15;4.85;;;3.00;68.30;;;;;;5028453;28;80701;-66
2020/12/03 07:56:27;;;;;;;11.93;4.78;;;3.10;68.10;;;;;;5026282;28;81193;-65
2020/12/03 07:58:54;;;;;;;10.88;5.50;;;3.20;68.00;;;;;;5026331;28;81766;-66
2020/12/03 08:01:26;;;;;;;11.93;4.35;;;3.20;67.80;;;;;;5027732;28;80609;-65
2020/12/03 08:04:18;;;;;;;13.48;5.20;;;3.30;67.70;;;;;;5026127;28;80067;-68
2020/12/03 08:07:04;;;;;;;13.07;4.90;;;3.30;67.60;;;;;;5027404;28;80523;-65
2020/12/03 08:09:40;;;;;;;9.02;4.32;;;3.40;67.50;;;;;;5014825;28;82637;-66
2020/12/03 08:12:15;;;;;;;8.88;5.00;;;3.40;67.30;;;;;;5026472;28;80700;-66
2020/12/03 08:14:51;;;;;;;12.05;4.75;;;3.50;67.10;;;;;;5025867;28;83573;-66
2020/12/03 08:17:17;;;;;;;8.85;4.30;;;3.60;67.00;;;;;;5025677;28;80784;-66
2020/12/03 08:19:46;;;;;;;9.27;5.10;;;3.70;66.70;;;;;;5025881;28;82817;-65
2020/12/03 08:22:26;;;;;;;14.60;5.50;;;3.80;66.20;;;;;;5027761;28;79636;-65
2020/12/03 08:25:01;;;;;;;10.68;4.95;;;3.90;66.10;;;;;;5025605;28;80571;-67
2020/12/03 08:27:27;;;;;;;13.20;6.05;;;4.00;65.70;;;;;;5025473;28;83101;-66
2020/12/03 08:29:53;;;;;;;12.60;5.07;;;4.30;65.20;;;;;;5025704;28;80839;-64
2020/12/03 08:32:19;;;;;;;12.85;4.70;;;4.40;64.60;;;;;;5027289;28;80863;-65
2020/12/03 08:34:44;;;;;;;10.80;4.95;;;4.40;64.20;;;;;;5025586;28;80517;-67
2020/12/03 08:37:18;;;;;;;11.90;4.50;;;4.40;64.10;;;;;;5027353;28;79773;-66
2020/12/03 08:39:51;;;;;;;10.98;4.72;;;4.50;63.80;;;;;;5025813;28;80803;-64
2020/12/03 08:42:16;;;;;;;11.70;3.92;;;4.50;63.50;;;;;;5025787;28;81144;-68
2020/12/03 08:44:43;;;;;;;14.23;4.88;;;4.60;63.00;;;;;;5028128;28;80199;-66
2020/12/03 08:47:15;;;;;;;11.52;4.18;;;4.80;62.70;;;;;;5026428;28;80867;-65
2020/12/03 08:49:44;;;;;;;10.10;4.70;;;4.90;62.10;;;;;;5025609;28;80565;-65
2020/12/03 08:52:11;;;;;;;16.90;5.25;;;5.00;62.00;;;;;;5025743;28;80072;-65
2020/12/03 08:54:36;;;;;;;30.42;8.60;;;5.20;61.60;;;;;;5025301;28;80385;-67
2020/12/03 08:57:10;;;;;;;18.98;7.47;;;5.20;60.80;;;;;;5025473;28;83857;-65
2020/12/03 08:59:42;;;;;;;17.38;7.07;;;5.10;61.00;;;;;;5025034;28;82400;-65
2020/12/03 09:02:10;;;;;;;20.55;6.43;;;5.00;61.20;;;;;;5025578;28;82316;-65
2020/12/03 09:04:42;;;;;;;12.95;6.32;;;5.00;60.90;;;;;;5027255;28;80290;-65
2020/12/03 09:07:13;;;;;;;14.27;6.15;;;5.10;61.20;;;;;;5025511;28;82862;-65
2020/12/03 09:09:44;;;;;;;19.08;5.78;;;5.20;60.90;;;;;;5026002;28;80520;-65
2020/12/03 09:12:10;;;;;;;12.18;5.93;;;5.30;60.60;;;;;;5026545;28;81165;-64
2020/12/03 09:14:40;;;;;;;11.80;4.70;;;5.30;60.20;;;;;;5027417;28;80792;-64
2020/12/03 09:17:09;;;;;;;12.80;5.40;;;5.40;59.80;;;;;;5024594;28;82898;-64
2020/12/03 09:19:36;;;;;;;11.27;5.53;;;5.80;59.10;;;;;;5026767;28;80186;-64
2020/12/03 09:22:03;;;;;;;10.18;5.40;;;6.10;58.30;;;;;;5025518;28;83882;-64
2020/12/03 09:24:29;;;;;;;25.60;7.18;;;6.50;57.20;;;;;;5024788;28;82833;-64
2020/12/03 09:27:06;;;;;;;12.10;5.57;;;6.90;55.60;;;;;;5026517;28;80107;-64
2020/12/03 09:29:32;;;;;;;16.33;4.85;;;7.10;55.10;;;;;;5025346;28;80542;-64
2020/12/03 09:32:08;;;;;;;12.07;5.78;;;7.40;53.90;;;;;;5025061;28;80820;-65
2020/12/03 09:34:36;;;;;;;15.55;5.57;;;8.00;53.10;;;;;;5026587;28;80041;-66
2020/12/03 09:37:03;;;;;;;11.00;4.85;;;8.40;52.20;;;;;;5026113;28;82956;-65
2020/12/03 09:39:34;;;;;;;8.43;4.30;;;8.60;51.60;;;;;;5028568;28;80645;-66
2020/12/03 09:42:03;;;;;;;15.88;5.85;;;9.00;50.20;;;;;;5027929;28;81215;-67
2020/12/03 09:44:35;;;;;;;17.77;5.00;;;9.10;49.80;;;;;;5029933;28;80702;-65
2020/12/03 09:47:06;;;;;;;9.90;4.57;;;9.60;48.60;;;;;;5028965;28;81928;-65
2020/12/03 09:49:33;;;;;;;15.10;5.70;;;10.20;47.20;;;;;;5030349;28;80492;-67
2020/12/03 09:52:03;;;;;;;8.10;5.25;;;10.50;46.30;;;;;;5030186;28;80851;-67
2020/12/03 09:54:29;;;;;;;13.77;5.75;;;10.30;46.70;;;;;;5028877;28;80975;-66
2020/12/03 09:56:55;;;;;;;12.20;5.60;;;10.20;47.20;;;;;;5029825;28;81188;-65
2020/12/03 09:59:21;;;;;;;13.32;5.00;;;10.70;46.40;;;;;;5028236;28;80760;-66
2020/12/03 10:01:53;;;;;;;13.65;6.35;;;11.40;44.90;;;;;;5027912;28;82763;-66
2020/12/03 10:04:27;;;;;;;10.80;4.85;;;11.80;44.20;;;;;;5027862;28;80860;-64
2020/12/03 10:07:16;;;;;;;10.85;4.70;;;12.40;42.90;;;;;;5028237;28;80830;-67
2020/12/03 10:10:08;;;;;;;12.63;5.20;;;13.60;40.50;;;;;;5027685;28;82997;-68
2020/12/03 10:12:52;;;;;;;11.50;4.85;;;14.70;38.50;;;;;;5000572;28;81503;-66
2020/12/03 10:15:44;;;;;;;9.32;3.30;;;14.60;38.50;;;;;;5029585;28;80332;-66
2020/12/03 10:18:21;;;;;;;10.60;4.28;;;14.40;37.50;;;;;;5028686;28;82539;-66
2020/12/03 10:20:50;;;;;;;9.98;4.75;;;14.60;37.60;;;;;;5027524;28;82402;-66
2020/12/03 10:23:52;;;;;;;9.38;4.78;;;15.90;36.00;;;;;;5027322;28;83121;-68
2020/12/03 10:26:54;;;;;;;14.93;5.82;;;17.30;34.50;;;;;;5027499;28;79989;-65
2020/12/03 10:29:32;;;;;;;11.40;4.93;;;18.20;32.50;;;;;;5028061;28;83873;-67
2020/12/03 10:32:22;;;;;;;9.38;5.03;;;18.60;31.90;;;;;;5027542;28;80867;-66
2020/12/03 10:34:48;;;;;;;14.38;5.32;;;19.50;30.70;;;;;;5028268;28;81275;-65
2020/12/03 10:37:43;;;;;;;9.18;4.88;;;20.70;28.90;;;;;;5029517;28;80022;-68
2020/12/03 10:40:18;;;;;;;11.05;4.53;;;19.80;29.90;;;;;;5027348;28;82953;-68
2020/12/03 10:42:59;;;;;;;12.40;4.35;;;19.20;30.10;;;;;;5027451;28;80405;-65
2020/12/03 10:45:35;;;;;;;8.68;4.30;;;17.90;31.50;;;;;;5027485;28;81824;-66
2020/12/03 10:48:10;;;;;;;12.68;4.40;;;18.60;31.10;;;;;;5028912;28;80081;-66
2020/12/03 10:50:52;;;;;;;7.45;3.97;;;20.20;28.80;;;;;;5027552;28;82647;-66
2020/12/03 10:53:24;;;;;;;9.23;3.92;;;21.70;27.40;;;;;;5029113;28;80883;-67
2020/12/03 10:56:02;;;;;;;11.07;3.97;;;21.80;27.00;;;;;;5027223;28;80789;-65
2020/12/03 10:58:37;;;;;;;9.18;4.03;;;20.70;27.90;;;;;;5026930;28;81388;-69
2020/12/03 11:01:12;;;;;;;8.77;4.00;;;20.70;28.50;;;;;;5027028;28;81663;-65
2020/12/03 11:03:39;;;;;;;11.68;4.05;;;21.90;27.10;;;;;;5028901;28;80854;-66
2020/12/03 11:06:06;;;;;;;7.47;3.83;;;23.00;25.60;;;;;;5028316;28;80608;-65
2020/12/03 11:08:40;;;;;;;12.73;5.18;;;22.40;25.90;;;;;;5026677;28;82358;-66
2020/12/03 11:11:07;;;;;;;8.68;4.35;;;22.40;26.10;;;;;;5026736;28;79942;-65
2020/12/03 11:13:33;;;;;;;5.85;3.55;;;23.20;25.50;;;;;;5028335;28;79831;-66
2020/12/03 11:16:04;;;;;;;7.60;3.92;;;22.60;25.70;;;;;;5026545;28;81024;-67
2020/12/03 11:18:40;;;;;;;8.63;4.10;;;21.60;27.10;;;;;;5025813;28;82496;-66
2020/12/03 11:21:19;;;;;;;13.63;4.25;;;22.90;25.90;;;;;;5026214;28;81052;-68
2020/12/03 11:24:29;;;;;;;7.75;3.50;;;24.40;24.50;;;;;;5026045;28;80741;-66
2020/12/03 11:26:55;;;;;;;7.30;3.97;;;25.40;23.90;;;;;;5027547;28;80983;-68
2020/12/03 11:29:21;;;;;;;10.70;3.88;;;25.50;23.20;;;;;;5027579;28;79879;-65
2020/12/03 11:31:47;;;;;;;8.10;3.70;;;24.10;24.30;;;;;;5026393;28;79942;-66
2020/12/03 11:34:13;;;;;;;8.73;3.65;;;23.40;25.10;;;;;;5027762;28;80175;-66
2020/12/03 11:36:41;;;;;;;10.07;3.83;;;23.20;25.40;;;;;;5025953;28;81524;-66
2020/12/03 11:39:08;;;;;;;8.98;3.85;;;23.90;24.30;;;;;;5027690;28;80171;-66
2020/12/03 11:49:27;;;;;;;7.32;2.50;;;23.90;23.40;;;;;;5024206;28;79616;-67
2020/12/03 11:51:53;;;;;;;7.60;2.38;;;23.70;23.70;;;;;;5025641;28;80793;-69
2020/12/03 11:54:27;;;;;;;6.10;2.17;;;23.00;24.00;;;;;;5027693;28;80213;-67
2020/12/03 11:56:57;;;;;;;4.95;1.90;;;22.10;24.90;;;;;;5025803;28;80936;-68
2020/12/03 11:59:32;;;;;;;3.88;1.88;;;22.30;24.30;;;;;;5025506;28;79926;-68
2020/12/03 12:02:02;;;;;;;5.00;2.33;;;21.30;25.20;;;;;;5024807;28;82990;-66
2020/12/03 12:09:50;;;;;;;4.70;1.90;;;20.00;26.70;;;;;;5024307;28;80122;-68
2020/12/03 12:12:18;;;;;;;4.88;2.50;;;19.60;27.20;;;;;;5027095;28;80586;-68
2020/12/03 12:14:44;;;;;;;6.60;2.60;;;19.00;28.00;;;;;;5027554;28;80668;-68
2020/12/03 12:17:09;;;;;;;4.93;1.90;;;19.90;27.50;;;;;;5025092;28;81835;-65
2020/12/03 12:19:36;;;;;;;5.53;3.17;;;22.30;24.90;;;;;;5025311;28;82672;-66
2020/12/03 12:22:04;;;;;;;5.50;1.70;;;22.50;24.50;;;;;;5025210;28;82287;-66
2020/12/03 12:24:30;;;;;;;5.43;2.13;;;22.30;24.70;;;;;;5025608;28;82623;-67
2020/12/03 12:26:56;;;;;;;4.00;2.38;;;21.70;25.00;;;;;;5025645;28;82051;-65
2020/12/03 12:29:22;;;;;;;6.03;2.33;;;21.00;25.80;;;;;;5027119;28;80362;-65
2020/12/03 12:31:47;;;;;;;6.28;2.38;;;20.90;25.80;;;;;;5025482;28;83517;-66
2020/12/03 12:34:13;;;;;;;5.72;2.53;;;20.40;26.30;;;;;;5024998;28;80345;-65
2020/12/03 12:36:39;;;;;;;5.68;2.55;;;20.10;26.80;;;;;;5024796;28;83077;-66
2020/12/03 12:39:05;;;;;;;5.82;2.42;;;19.20;28.00;;;;;;5025237;28;80253;-66
2020/12/03 12:41:31;;;;;;;6.40;2.90;;;18.30;29.30;;;;;;5024835;28;82786;-64
2020/12/03 12:43:56;;;;;;;4.47;2.28;;;17.70;30.50;;;;;;5024840;28;81977;-65
2020/12/03 12:46:24;;;;;;;4.57;2.50;;;17.10;31.20;;;;;;5026811;28;81088;-65
2020/12/03 12:48:51;;;;;;;4.18;2.05;;;17.30;31.30;;;;;;5025024;28;80509;-66
2020/12/03 12:51:18;;;;;;;5.03;2.53;;;18.10;30.40;;;;;;5024720;28;80892;-66
2020/12/03 12:53:44;;;;;;;8.27;2.80;;;19.00;29.60;;;;;;5025224;28;83400;-65
2020/12/03 12:56:11;;;;;;;5.25;3.20;;;19.00;29.50;;;;;;5024206;28;82999;-65
2020/12/03 12:58:37;;;;;;;4.82;2.92;;;19.10;29.70;;;;;;5024999;28;80624;-66
2020/12/03 13:01:04;;;;;;;6.05;2.17;;;20.20;28.40;;;;;;5025634;28;80540;-64
2020/12/03 13:03:31;;;;;;;4.60;2.35;;;20.90;27.50;;;;;;5026259;28;80245;-64
2020/12/03 13:05:57;;;;;;;7.35;2.83;;;20.30;28.00;;;;;;5026489;28;80729;-65
2020/12/03 13:08:23;;;;;;;5.95;2.50;;;19.00;29.20;;;;;;5024488;28;81554;-65
2020/12/03 13:10:48;;;;;;;4.97;2.33;;;19.10;29.70;;;;;;5024481;28;82430;-65
2020/12/03 13:13:14;;;;;;;3.90;2.55;;;19.70;28.80;;;;;;5028881;28;80786;-65
2020/12/03 13:15:40;;;;;;;6.97;2.78;;;19.50;29.00;;;;;;5029770;28;80644;-65
2020/12/03 13:18:06;;;;;;;5.80;2.22;;;19.40;29.10;;;;;;5027958;28;80596;-66
2020/12/03 13:20:32;;;;;;;4.43;2.17;;;19.50;29.00;;;;;;5028134;28;80112;-64
2020/12/03 13:22:57;;;;;;;4.30;2.13;;;18.60;30.10;;;;;;5028174;28;80045;-65
2020/12/03 13:25:23;;;;;;;3.92;2.30;;;17.90;30.80;;;;;;5027996;28;82568;-65
2020/12/03 13:27:49;;;;;;;4.30;2.00;;;17.90;30.60;;;;;;5029574;28;79963;-65
2020/12/03 13:30:15;;;;;;;8.77;2.75;;;18.30;30.20;;;;;;5028419;28;83941;-65
2020/12/03 13:32:41;;;;;;;5.00;2.10;;;18.60;29.80;;;;;;5029996;28;81306;-65